Time;durP1;ratioP1;P1;durP2;ratioP2;P2;SDS_P1;SDS_P2;PMS_P1;PMS_P2;Temp;Humidity;BMP_temperature;BMP_pressure;BME280_temperature;BME280_humidity;BME280_pressure;Samples;Min_cycle;Max_cycle;Signal;HPM_P1;HPM_P2
2021/09/13 00:00:08;;;;;;;9.82;3.90;;;14.40;99.90;;;;;;5065356;28;20041;-44
2021/09/13 00:02:41;;;;;;;8.25;4.18;;;14.40;99.90;;;;;;5065768;28;20105;-44
2021/09/13 00:05:09;;;;;;;10.55;3.88;;;14.50;99.90;;;;;;5065819;28;20060;-42
2021/09/13 00:07:39;;;;;;;7.18;3.75;;;14.50;99.90;;;;;;5066186;28;20055;-43
2021/09/13 00:10:07;;;;;;;11.45;4.75;;;14.50;99.90;;;;;;5064067;28;20049;-43
2021/09/13 00:12:38;;;;;;;10.10;4.78;;;14.60;99.90;;;;;;5065641;28;20048;-43
2021/09/13 00:15:09;;;;;;;12.88;4.57;;;14.60;99.90;;;;;;5066106;28;20121;-44
2021/09/13 00:17:37;;;;;;;8.52;3.97;;;14.60;99.90;;;;;;5059078;28;20051;-44
2021/09/13 00:20:07;;;;;;;12.27;5.50;;;14.60;99.90;;;;;;5064309;28;20052;-43
2021/09/13 00:22:33;;;;;;;11.00;4.85;;;14.60;99.90;;;;;;5058654;28;20588;-45
2021/09/13 00:25:04;;;;;;;9.20;4.57;;;14.60;99.90;;;;;;5065042;28;20481;-44
2021/09/13 00:27:35;;;;;;;13.88;4.68;;;14.60;99.90;;;;;;5065063;28;20094;-44
2021/09/13 00:30:06;;;;;;;12.95;4.90;;;14.60;99.90;;;;;;5064495;28;20114;-44
2021/09/13 00:32:37;;;;;;;7.32;4.78;;;14.60;99.90;;;;;;5066539;28;20445;-45
2021/09/13 00:35:04;;;;;;;9.77;4.80;;;14.60;99.90;;;;;;5064395;28;20461;-45
2021/09/13 00:37:30;;;;;;;11.68;4.72;;;14.70;99.90;;;;;;5052356;28;20064;-45
2021/09/13 00:40:00;;;;;;;11.88;5.50;;;14.70;99.90;;;;;;5063519;28;20072;-45
2021/09/13 00:42:26;;;;;;;9.43;4.97;;;14.70;99.90;;;;;;5066763;28;20091;-45
2021/09/13 00:44:54;;;;;;;7.00;3.92;;;14.70;99.90;;;;;;5067542;28;20706;-47
2021/09/13 00:47:23;;;;;;;10.30;4.50;;;14.70;99.90;;;;;;5066633;28;20057;-45
2021/09/13 00:49:49;;;;;;;9.40;4.65;;;14.80;99.90;;;;;;5067106;28;20139;-45
2021/09/13 00:52:17;;;;;;;11.18;4.55;;;14.80;99.90;;;;;;5069566;28;20056;-45
2021/09/13 00:54:45;;;;;;;9.57;4.00;;;14.80;99.90;;;;;;5068771;28;20574;-45
2021/09/13 00:57:13;;;;;;;8.40;4.55;;;14.80;99.90;;;;;;5068465;28;20523;-44
2021/09/13 00:59:45;;;;;;;8.73;4.05;;;14.80;99.90;;;;;;5068264;28;21425;-44
2021/09/13 01:02:11;;;;;;;7.35;3.85;;;14.80;99.90;;;;;;5069023;28;20061;-45
2021/09/13 01:04:40;;;;;;;8.63;4.22;;;14.80;99.90;;;;;;5068034;28;20048;-46
2021/09/13 01:07:12;;;;;;;8.20;4.05;;;14.90;99.90;;;;;;5069264;28;20454;-45
2021/09/13 01:09:41;;;;;;;8.80;4.30;;;14.80;99.90;;;;;;5067157;28;20052;-46
2021/09/13 01:12:08;;;;;;;9.25;4.00;;;14.90;99.90;;;;;;5066086;28;20092;-44
2021/09/13 01:14:37;;;;;;;8.75;4.40;;;14.90;99.90;;;;;;5068156;28;20059;-45
2021/09/13 01:17:05;;;;;;;8.85;4.00;;;14.90;99.90;;;;;;5068915;28;20045;-45
2021/09/13 01:19:31;;;;;;;7.95;3.85;;;14.90;99.90;;;;;;5067698;28;20061;-45
2021/09/13 01:22:06;;;;;;;11.35;4.15;;;14.90;99.90;;;;;;5048393;28;20124;-46
2021/09/13 01:24:42;;;;;;;11.82;4.15;;;14.90;99.90;;;;;;5071326;28;20048;-46
2021/09/13 01:27:13;;;;;;;9.18;4.30;;;14.90;99.90;;;;;;5068148;28;20067;-46
2021/09/13 01:29:46;;;;;;;9.15;4.40;;;14.90;99.90;;;;;;5061648;28;20412;-46
2021/09/13 01:32:14;;;;;;;7.70;3.67;;;14.90;99.90;;;;;;5066349;28;20052;-45
2021/09/13 01:34:52;;;;;;;6.28;3.85;;;14.90;99.90;;;;;;5067534;28;20847;-46
2021/09/13 01:37:23;;;;;;;9.95;4.22;;;14.80;99.90;;;;;;5066368;28;20064;-47
2021/09/13 01:39:50;;;;;;;10.80;4.25;;;14.90;99.90;;;;;;5065846;28;20552;-46
2021/09/13 01:42:17;;;;;;;9.13;5.35;;;14.90;99.90;;;;;;5046546;28;20087;-45
2021/09/13 01:44:43;;;;;;;8.90;5.13;;;14.90;99.90;;;;;;5066978;28;20060;-44
2021/09/13 01:47:12;;;;;;;11.23;4.97;;;14.80;99.90;;;;;;5067890;28;20153;-44
2021/09/13 01:49:43;;;;;;;12.82;5.45;;;14.80;99.90;;;;;;5066193;28;20044;-46
2021/09/13 01:52:14;;;;;;;8.50;5.10;;;14.80;99.90;;;;;;5066363;28;20056;-45
2021/09/13 01:54:41;;;;;;;7.38;4.28;;;14.90;99.90;;;;;;5064551;28;20049;-46
2021/09/13 01:57:13;;;;;;;6.60;3.63;;;14.80;99.90;;;;;;5064635;28;20428;-45
2021/09/13 01:59:45;;;;;;;11.27;4.82;;;14.80;99.90;;;;;;5065672;28;20189;-46
2021/09/13 02:02:14;;;;;;;9.75;4.40;;;14.80;99.90;;;;;;5066063;28;20060;-46
2021/09/13 02:04:43;;;;;;;11.52;4.07;;;14.80;99.90;;;;;;5061547;28;20125;-46
2021/09/13 02:07:15;;;;;;;9.98;4.35;;;14.80;99.90;;;;;;5066749;28;20048;-48
2021/09/13 02:09:47;;;;;;;8.75;4.00;;;14.80;99.90;;;;;;5067636;28;20083;-47
2021/09/13 02:12:19;;;;;;;8.52;4.03;;;14.80;99.90;;;;;;5064504;28;20044;-47
2021/09/13 02:14:50;;;;;;;7.88;3.70;;;14.80;99.90;;;;;;5065649;28;20044;-45
2021/09/13 02:17:20;;;;;;;9.70;4.57;;;14.80;99.90;;;;;;5064770;28;20110;-45
2021/09/13 02:19:48;;;;;;;10.48;4.55;;;14.80;99.90;;;;;;5063805;28;20488;-44
2021/09/13 02:22:15;;;;;;;10.48;4.38;;;14.80;99.90;;;;;;5065991;28;20049;-46
2021/09/13 02:24:41;;;;;;;6.78;3.58;;;14.80;99.90;;;;;;5050065;28;20048;-45
2021/09/13 02:27:13;;;;;;;9.45;4.45;;;14.80;99.90;;;;;;5067664;28;20060;-44
2021/09/13 02:29:41;;;;;;;9.07;4.32;;;14.80;99.90;;;;;;5065227;28;20054;-45
2021/09/13 02:32:10;;;;;;;10.85;4.53;;;14.80;99.90;;;;;;5066142;28;20049;-46
2021/09/13 02:34:38;;;;;;;10.23;4.90;;;14.80;99.90;;;;;;5066404;28;20102;-46
2021/09/13 02:37:06;;;;;;;10.48;4.40;;;14.90;99.90;;;;;;5066821;28;20060;-46
2021/09/13 02:39:33;;;;;;;12.95;4.50;;;14.90;99.90;;;;;;5063043;28;20052;-46
2021/09/13 02:41:59;;;;;;;14.13;5.03;;;14.90;99.90;;;;;;5062876;28;20489;-46
2021/09/13 02:44:25;;;;;;;13.93;4.85;;;14.90;99.90;;;;;;5065691;28;20044;-46
2021/09/13 02:46:55;;;;;;;12.25;4.65;;;14.90;99.90;;;;;;5066744;28;20052;-46
2021/09/13 02:49:23;;;;;;;11.95;4.10;;;14.90;99.90;;;;;;5063096;28;20057;-48
2021/09/13 02:51:50;;;;;;;12.18;4.75;;;14.90;99.90;;;;;;5067562;28;20485;-45
2021/09/13 02:54:21;;;;;;;13.13;4.30;;;14.90;99.90;;;;;;5065375;28;20052;-46
2021/09/13 02:56:47;;;;;;;13.35;4.53;;;14.90;99.90;;;;;;5062624;28;20523;-45
2021/09/13 02:59:18;;;;;;;10.88;4.38;;;14.90;99.90;;;;;;5064110;28;20048;-46
2021/09/13 03:01:45;;;;;;;9.85;4.13;;;14.90;99.90;;;;;;5064354;28;20044;-44
2021/09/13 03:04:13;;;;;;;10.57;4.90;;;15.00;99.90;;;;;;5098239;28;20060;-45
2021/09/13 03:06:39;;;;;;;11.77;4.20;;;14.90;99.90;;;;;;5063265;28;20137;-44
2021/09/13 03:09:08;;;;;;;13.88;4.53;;;15.00;99.90;;;;;;5061327;28;20739;-45
2021/09/13 03:11:37;;;;;;;11.18;4.15;;;15.00;99.90;;;;;;5066831;28;20509;-46
2021/09/13 03:14:06;;;;;;;10.35;4.50;;;15.00;99.90;;;;;;5067140;28;20056;-45
2021/09/13 03:16:33;;;;;;;13.75;5.00;;;15.00;99.90;;;;;;5064781;28;20051;-45
2021/09/13 03:18:59;;;;;;;13.77;4.80;;;15.00;99.90;;;;;;5064469;28;20541;-45
2021/09/13 03:21:29;;;;;;;15.35;4.80;;;15.00;99.90;;;;;;5066172;28;20587;-47
2021/09/13 03:23:58;;;;;;;11.13;4.53;;;15.00;99.90;;;;;;5062500;28;20052;-46
2021/09/13 03:26:26;;;;;;;17.90;5.47;;;15.00;99.90;;;;;;5065087;28;20056;-45
2021/09/13 03:28:55;;;;;;;16.23;5.85;;;15.00;99.90;;;;;;5063352;28;20145;-45
2021/09/13 03:31:24;;;;;;;14.75;5.57;;;15.10;99.90;;;;;;5064132;28;20050;-45
2021/09/13 03:33:50;;;;;;;13.52;5.00;;;15.00;99.90;;;;;;5065950;28;20040;-46
2021/09/13 03:36:21;;;;;;;11.77;5.20;;;15.00;99.90;;;;;;5064829;28;20048;-45
2021/09/13 03:38:49;;;;;;;13.35;5.38;;;15.00;99.90;;;;;;5063933;28;20517;-46
2021/09/13 03:41:21;;;;;;;13.20;4.85;;;15.00;99.90;;;;;;5061862;28;20095;-45
2021/09/13 03:43:47;;;;;;;15.10;5.63;;;15.00;99.90;;;;;;5062010;28;20057;-44
2021/09/13 03:46:16;;;;;;;20.77;5.05;;;15.00;99.90;;;;;;5064272;28;20059;-45
2021/09/13 03:48:59;;;;;;;15.38;5.00;;;15.00;99.90;;;;;;5063144;28;20052;-46
2021/09/13 03:51:27;;;;;;;19.40;4.78;;;15.10;99.90;;;;;;5046787;28;20117;-45
2021/09/13 03:54:01;;;;;;;18.63;5.50;;;15.00;99.90;;;;;;5050865;28;20063;-46
2021/09/13 03:56:30;;;;;;;10.53;5.10;;;15.00;99.90;;;;;;5065600;28;20075;-48
2021/09/13 03:59:01;;;;;;;16.67;4.95;;;15.00;99.90;;;;;;5062798;28;20356;-47
2021/09/13 04:01:27;;;;;;;15.45;4.97;;;15.00;99.90;;;;;;5065247;28;20497;-45
2021/09/13 04:03:59;;;;;;;16.95;5.28;;;15.00;99.90;;;;;;5064371;28;20057;-46
2021/09/13 04:12:07;;;;;;;15.45;6.28;;;15.00;99.90;;;;;;5029210;28;20073;-45
2021/09/13 04:14:55;;;;;;;12.93;5.10;;;15.00;99.90;;;;;;5043115;28;20071;-45
2021/09/13 04:17:49;;;;;;;16.13;5.18;;;15.00;99.90;;;;;;5030871;28;20053;-46
2021/09/13 04:20:33;;;;;;;15.30;5.45;;;15.00;99.90;;;;;;5047439;28;20191;-46
2021/09/13 04:23:19;;;;;;;14.85;7.00;;;15.00;99.90;;;;;;5044551;28;20049;-47
2021/09/13 04:26:08;;;;;;;11.68;5.18;;;15.00;99.90;;;;;;5045312;28;20127;-47
2021/09/13 04:28:58;;;;;;;14.98;5.60;;;14.90;99.90;;;;;;5031552;28;20064;-48
2021/09/13 04:31:48;;;;;;;17.67;5.75;;;14.90;99.90;;;;;;5032180;28;20135;-45
2021/09/13 04:34:28;;;;;;;15.05;5.30;;;14.90;99.90;;;;;;5030159;28;20073;-47
2021/09/13 04:37:14;;;;;;;11.43;5.45;;;14.90;99.90;;;;;;5029873;28;20045;-48
2021/09/13 04:40:03;;;;;;;10.43;4.68;;;14.80;99.90;;;;;;5032464;28;20049;-47
2021/09/13 04:42:52;;;;;;;14.20;5.10;;;14.80;99.90;;;;;;4953371;28;20047;-46
2021/09/13 04:45:33;;;;;;;16.10;5.43;;;14.70;99.90;;;;;;4967930;28;20086;-45
2021/09/13 04:48:18;;;;;;;14.60;5.97;;;14.70;99.90;;;;;;4987492;28;20079;-48
2021/09/13 04:51:02;;;;;;;22.88;7.32;;;14.60;99.90;;;;;;4954486;28;20051;-46
2021/09/13 04:53:51;;;;;;;15.15;5.85;;;14.50;99.90;;;;;;4967272;28;20058;-46
2021/09/13 04:56:21;;;;;;;12.35;5.60;;;14.50;99.90;;;;;;4971488;28;20138;-47
2021/09/13 04:58:51;;;;;;;13.52;5.97;;;14.50;99.90;;;;;;4974217;28;20055;-47
2021/09/13 05:01:25;;;;;;;10.80;5.85;;;14.40;99.90;;;;;;4960054;28;20170;-46
2021/09/13 05:03:53;;;;;;;18.00;6.50;;;14.40;99.90;;;;;;4962323;28;20121;-45
2021/09/13 05:06:26;;;;;;;13.55;6.18;;;14.40;99.90;;;;;;4966092;28;20318;-49
2021/09/13 05:08:56;;;;;;;12.40;6.25;;;14.40;99.90;;;;;;4972924;28;20450;-47
2021/09/13 05:11:28;;;;;;;14.43;6.32;;;14.40;99.90;;;;;;4960325;28;20055;-52
2021/09/13 05:13:54;;;;;;;17.75;6.70;;;14.40;99.90;;;;;;4965944;28;20073;-44
2021/09/13 05:16:21;;;;;;;15.13;6.28;;;14.40;99.90;;;;;;4966442;28;20435;-44
2021/09/13 05:18:50;;;;;;;15.15;6.10;;;14.40;99.90;;;;;;4967390;28;20117;-43
2021/09/13 05:21:19;;;;;;;16.20;6.55;;;14.40;99.90;;;;;;5001420;28;20061;-42
2021/09/13 05:23:57;;;;;;;15.73;6.60;;;14.40;99.90;;;;;;5019731;28;20092;-44
2021/09/13 05:26:24;;;;;;;13.75;6.38;;;14.40;99.90;;;;;;5019266;28;20490;-44
2021/09/13 05:28:53;;;;;;;16.42;6.93;;;14.40;99.90;;;;;;5000987;28;20093;-45
2021/09/13 05:31:19;;;;;;;17.13;6.95;;;14.40;99.90;;;;;;5070468;28;20063;-43
2021/09/13 05:33:50;;;;;;;10.98;6.93;;;14.40;99.90;;;;;;5058490;28;20085;-43
2021/09/13 05:36:20;;;;;;;11.23;6.05;;;14.50;99.90;;;;;;5063546;28;20049;-45
2021/09/13 05:38:50;;;;;;;16.70;7.13;;;14.50;99.90;;;;;;5062341;28;20052;-44
2021/09/13 05:41:48;;;;;;;16.45;9.00;;;14.50;99.90;;;;;;5056120;28;20059;-44
2021/09/13 05:44:17;;;;;;;;;;;14.50;99.90;;;;;;5062174;28;20057;-44
2021/09/13 05:46:46;;;;;;;18.38;12.60;;;14.60;99.90;;;;;;5078412;28;19931;-46
2021/09/13 05:49:14;;;;;;;11.52;6.30;;;14.60;99.90;;;;;;5040114;28;20060;-45
2021/09/13 05:51:50;;;;;;;17.20;10.57;;;14.70;99.90;;;;;;5056895;28;21699;-43
2021/09/13 05:54:25;;;;;;;10.75;5.60;;;14.70;99.90;;;;;;5077706;28;20484;-43
2021/09/13 05:56:57;;;;;;;11.95;7.50;;;14.70;99.90;;;;;;5057311;28;20778;-44
2021/09/13 05:59:29;;;;;;;16.00;9.40;;;14.80;99.90;;;;;;5056133;28;20057;-44
2021/09/13 06:02:04;;;;;;;11.98;5.70;;;14.80;99.90;;;;;;5057062;28;20178;-44
2021/09/13 06:04:34;;;;;;;14.95;5.57;;;14.90;99.90;;;;;;5065001;28;20057;-44
2021/09/13 06:07:04;;;;;;;12.43;5.57;;;15.00;99.90;;;;;;5059155;28;20063;-43
2021/09/13 06:09:34;;;;;;;13.15;5.68;;;15.00;99.90;;;;;;5078837;28;20544;-45
2021/09/13 06:12:01;;;;;;;15.07;6.90;;;15.00;99.90;;;;;;5058731;28;20053;-46
2021/09/13 06:14:39;;;;;;;14.45;8.30;;;15.10;99.90;;;;;;5059671;28;20049;-45
2021/09/13 06:17:05;;;;;;;20.38;13.77;;;15.10;99.90;;;;;;5047073;28;20044;-44
2021/09/13 06:19:39;;;;;;;12.38;5.57;;;15.20;99.90;;;;;;5060082;28;20147;-46
2021/09/13 06:22:09;;;;;;;12.43;5.57;;;15.20;99.90;;;;;;5058070;28;20064;-47
2021/09/13 06:24:39;;;;;;;11.65;5.28;;;15.30;99.90;;;;;;5053629;28;20750;-44
2021/09/13 06:27:08;;;;;;;20.08;14.50;;;15.30;99.90;;;;;;5058561;28;20118;-44
2021/09/13 06:29:45;;;;;;;9.32;6.40;;;15.40;99.90;;;;;;5060107;28;20127;-45
2021/09/13 06:32:16;;;;;;;17.38;10.45;;;15.40;99.90;;;;;;5044730;28;20084;-45
2021/09/13 06:34:44;;;;;;;11.40;5.43;;;15.50;99.90;;;;;;5060183;28;20130;-42
2021/09/13 06:37:12;;;;;;;12.70;6.38;;;15.50;99.90;;;;;;5062406;28;20063;-45
2021/09/13 06:39:40;;;;;;;14.48;6.60;;;15.50;99.90;;;;;;5060711;28;20052;-44
2021/09/13 06:42:07;;;;;;;11.45;5.47;;;15.60;99.90;;;;;;5060944;28;20447;-46
2021/09/13 06:44:44;;;;;;;11.45;5.85;;;15.60;99.90;;;;;;5061697;28;20057;-43
2021/09/13 06:49:57;;;;;;;10.02;5.70;;;15.80;99.90;;;;;;5057015;28;20060;-42
2021/09/13 06:52:26;;;;;;;18.85;9.88;;;15.90;99.90;;;;;;5052022;28;20783;-43
2021/09/13 06:54:52;;;;;;;56.83;47.35;;;15.90;99.90;;;;;;5057544;28;20045;-43
2021/09/13 06:57:19;;;;;;;17.40;8.82;;;16.10;99.90;;;;;;5051991;28;20457;-44
2021/09/13 06:59:49;;;;;;;11.50;6.47;;;16.10;99.90;;;;;;5056655;28;20754;-44
2021/09/13 07:02:15;;;;;;;12.80;5.30;;;16.20;99.90;;;;;;5056417;28;20052;-45
2021/09/13 07:04:41;;;;;;;12.77;7.07;;;16.30;99.90;;;;;;5052154;28;20049;-45
2021/09/13 07:07:09;;;;;;;10.57;5.55;;;16.30;99.90;;;;;;5053048;28;20064;-43
2021/09/13 07:09:38;;;;;;;12.60;4.57;;;16.30;99.90;;;;;;5057856;28;20051;-44
2021/09/13 07:12:12;;;;;;;11.73;6.43;;;16.40;99.90;;;;;;5057692;28;20056;-46
2021/09/13 07:14:40;;;;;;;14.93;5.35;;;16.50;99.90;;;;;;5064591;28;20050;-45
2021/09/13 07:17:08;;;;;;;8.68;4.30;;;16.60;99.90;;;;;;5059769;28;20437;-44
2021/09/13 07:19:38;;;;;;;11.27;4.20;;;16.70;99.90;;;;;;5053094;28;20056;-44
2021/09/13 07:22:04;;;;;;;9.57;3.90;;;16.80;99.90;;;;;;5053439;28;20051;-44
2021/09/13 07:24:33;;;;;;;11.13;3.97;;;16.80;99.90;;;;;;5054142;28;20059;-46
2021/09/13 07:27:00;;;;;;;13.10;7.38;;;17.00;99.90;;;;;;5052752;28;20680;-45
2021/09/13 07:29:29;;;;;;;10.40;3.75;;;17.00;99.90;;;;;;5048251;28;21772;-43
2021/09/13 07:32:00;;;;;;;8.77;3.80;;;17.20;99.90;;;;;;5056222;28;20072;-45
2021/09/13 07:34:27;;;;;;;153.55;138.68;;;17.40;99.90;;;;;;5062717;28;20113;-46
2021/09/13 07:36:55;;;;;;;12.65;5.00;;;17.50;99.90;;;;;;5053108;28;20110;-45
2021/09/13 07:39:26;;;;;;;7.93;3.30;;;17.70;99.90;;;;;;5052867;28;20057;-44
2021/09/13 07:41:53;;;;;;;15.23;6.75;;;17.90;99.90;;;;;;5060002;28;20052;-45
2021/09/13 07:44:23;;;;;;;15.43;8.85;;;18.10;99.90;;;;;;5058305;28;20106;-46
2021/09/13 07:46:49;;;;;;;13.43;8.18;;;18.20;99.90;;;;;;5052568;28;20473;-45
2021/09/13 07:49:15;;;;;;;9.45;2.85;;;18.40;99.90;;;;;;5060369;28;20048;-44
2021/09/13 07:51:41;;;;;;;8.35;2.38;;;18.50;99.90;;;;;;5054662;28;20126;-46
2021/09/13 07:54:08;;;;;;;11.98;2.88;;;18.50;99.90;;;;;;5062526;28;20051;-44
2021/09/13 07:56:37;;;;;;;8.82;2.60;;;18.60;99.90;;;;;;5067218;28;20057;-44
2021/09/13 07:59:03;;;;;;;9.45;2.38;;;18.60;99.90;;;;;;5066556;28;20044;-44
2021/09/13 08:01:33;;;;;;;21.55;13.95;;;18.60;99.90;;;;;;5070198;28;20057;-43
2021/09/13 08:03:59;;;;;;;20.98;14.63;;;18.70;99.90;;;;;;5062044;28;20344;-46
2021/09/13 08:06:25;;;;;;;13.80;6.72;;;18.80;99.90;;;;;;5051679;28;20151;-45
2021/09/13 08:08:56;;;;;;;7.10;3.65;;;18.90;99.90;;;;;;5066425;28;20462;-45
2021/09/13 08:11:26;;;;;;;17.53;13.77;;;18.90;99.90;;;;;;5070150;28;20053;-44
2021/09/13 08:13:52;;;;;;;8.32;2.72;;;19.00;99.90;;;;;;5069740;28;20488;-45
2021/09/13 08:16:23;;;;;;;8.65;2.47;;;19.10;99.90;;;;;;5069753;28;20056;-44
2021/09/13 08:18:51;;;;;;;9.60;5.68;;;19.10;99.90;;;;;;5069080;28;20626;-44
2021/09/13 08:21:21;;;;;;;7.90;2.22;;;19.20;99.90;;;;;;5071895;28;20064;-43
2021/09/13 08:23:50;;;;;;;8.93;2.90;;;19.10;99.90;;;;;;5060872;28;20060;-43
2021/09/13 08:26:17;;;;;;;6.43;2.33;;;19.10;99.90;;;;;;5068886;28;20493;-43
2021/09/13 08:28:44;;;;;;;7.63;2.30;;;19.00;99.90;;;;;;5055050;28;20067;-44
2021/09/13 08:31:11;;;;;;;6.07;1.80;;;19.10;99.90;;;;;;5074807;28;20052;-44
2021/09/13 08:33:44;;;;;;;6.85;1.95;;;19.20;99.90;;;;;;5068152;28;20111;-44
2021/09/13 08:36:12;;;;;;;7.45;2.60;;;19.30;99.90;;;;;;5070850;28;20139;-44
2021/09/13 08:38:39;;;;;;;27.05;22.02;;;19.40;99.90;;;;;;5102416;27;20055;-44
2021/09/13 08:41:08;;;;;;;5.40;1.80;;;19.60;99.90;;;;;;5069351;28;20045;-45
2021/09/13 08:43:34;;;;;;;8.02;2.08;;;19.50;99.90;;;;;;5057162;28;20060;-43
2021/09/13 08:46:08;;;;;;;12.57;7.85;;;19.50;99.90;;;;;;5069173;28;20048;-44
2021/09/13 08:48:45;;;;;;;14.35;9.77;;;19.40;99.90;;;;;;5063663;28;20061;-45
2021/09/13 08:53:45;;;;;;;7.50;3.60;;;19.30;99.90;;;;;;5050071;28;20079;-43
2021/09/13 08:56:16;;;;;;;;;;;19.30;99.90;;;;;;5051805;28;20057;-44
2021/09/13 08:58:43;;;;;;;6.47;1.33;;;19.20;99.90;;;;;;5056576;28;19960;-45
2021/09/13 09:01:12;;;;;;;22.95;19.83;;;19.30;99.90;;;;;;5069264;28;20060;-43
2021/09/13 09:03:39;;;;;;;7.20;1.88;;;19.20;99.90;;;;;;5066764;28;20052;-44
2021/09/13 09:06:06;;;;;;;9.48;2.05;;;19.20;99.90;;;;;;5067663;28;20405;-42
2021/09/13 09:08:36;;;;;;;7.07;1.60;;;19.10;99.90;;;;;;5068918;28;20126;-45
2021/09/13 09:11:06;;;;;;;9.65;3.20;;;19.20;99.90;;;;;;5064406;28;20045;-42
2021/09/13 09:13:43;;;;;;;7.60;2.53;;;19.10;99.90;;;;;;5048520;28;20060;-44
2021/09/13 09:16:14;;;;;;;8.02;2.72;;;19.10;99.90;;;;;;5049608;28;20041;-44
2021/09/13 09:18:42;;;;;;;8.55;2.03;;;19.10;99.90;;;;;;5065387;28;20627;-45
2021/09/13 09:21:09;;;;;;;8.43;4.18;;;19.20;99.90;;;;;;5091129;28;20413;-46
2021/09/13 09:23:56;;;;;;;8.05;1.98;;;19.20;99.90;;;;;;5055611;28;20133;-45
2021/09/13 09:26:26;;;;;;;5.18;2.08;;;19.20;99.90;;;;;;5064726;28;20110;-44
2021/09/13 09:28:52;;;;;;;8.38;2.92;;;19.20;99.90;;;;;;5066124;28;20048;-46
2021/09/13 09:31:37;;;;;;;6.97;1.45;;;19.30;99.90;;;;;;5069065;28;20067;-43
2021/09/13 09:34:15;;;;;;;8.18;4.03;;;19.40;99.90;;;;;;5068956;28;20508;-46
2021/09/13 09:37:00;;;;;;;8.73;1.40;;;19.50;99.90;;;;;;5068036;28;20722;-45
2021/09/13 09:39:31;;;;;;;7.10;1.58;;;19.60;99.90;;;;;;5059769;28;20058;-44
2021/09/13 09:41:58;;;;;;;8.10;1.43;;;19.70;99.90;;;;;;5056455;28;20078;-46
2021/09/13 09:44:25;;;;;;;7.30;2.78;;;19.90;99.90;;;;;;5069152;28;20056;-44
2021/09/13 09:46:55;;;;;;;23.80;15.85;;;20.10;99.90;;;;;;5066980;28;20048;-47
2021/09/13 09:49:23;;;;;;;11.77;6.20;;;20.10;99.90;;;;;;5069376;28;20066;-44
2021/09/13 09:51:55;;;;;;;7.13;2.47;;;20.30;99.90;;;;;;5065418;28;20049;-45
2021/09/13 09:54:27;;;;;;;6.57;1.60;;;20.30;99.90;;;;;;5066716;28;20540;-45
2021/09/13 09:57:07;;;;;;;7.63;3.95;;;20.30;99.90;;;;;;5060614;28;20048;-45
2021/09/13 09:59:41;;;;;;;4.40;1.40;;;20.40;99.90;;;;;;5047105;28;20103;-45
2021/09/13 10:02:15;;;;;;;5.28;2.00;;;20.40;99.90;;;;;;5056330;28;20103;-45
2021/09/13 10:04:42;;;;;;;7.28;2.60;;;20.50;99.90;;;;;;5066745;28;20138;-45
2021/09/13 10:07:13;;;;;;;6.43;1.95;;;20.60;99.90;;;;;;5061274;28;20057;-44
2021/09/13 10:09:41;;;;;;;4.78;1.42;;;20.60;99.90;;;;;;5045465;28;20429;-46
2021/09/13 10:12:08;;;;;;;3.50;1.10;;;20.60;99.90;;;;;;5048780;28;20068;-46
2021/09/13 10:14:35;;;;;;;13.40;10.40;;;20.70;99.90;;;;;;5065197;28;20053;-44
2021/09/13 10:17:04;;;;;;;7.22;2.97;;;20.70;99.90;;;;;;5067645;28;20405;-43
2021/09/13 10:19:32;;;;;;;4.20;1.10;;;20.80;99.90;;;;;;5067307;28;20117;-45
2021/09/13 10:22:01;;;;;;;8.75;4.32;;;20.80;99.90;;;;;;5064384;28;20159;-43
2021/09/13 10:24:31;;;;;;;9.98;4.30;;;20.80;99.90;;;;;;5055811;28;20068;-46
2021/09/13 10:27:05;;;;;;;3.85;1.13;;;21.20;99.90;;;;;;5061156;28;20072;-45
2021/09/13 10:29:31;;;;;;;7.30;4.07;;;21.90;99.90;;;;;;5057806;28;20083;-43
2021/09/13 10:32:01;;;;;;;5.78;1.50;;;22.50;99.90;;;;;;5060887;28;20052;-44
2021/09/13 10:34:31;;;;;;;7.28;1.80;;;22.90;99.90;;;;;;5067177;28;20073;-43
2021/09/13 10:37:15;;;;;;;10.52;5.80;;;23.60;99.90;;;;;;5061035;28;20057;-43
2021/09/13 10:39:55;;;;;;;6.75;1.90;;;24.40;93.70;;;;;;5047245;28;20076;-44
2021/09/13 10:42:48;;;;;;;5.73;1.47;;;25.00;87.70;;;;;;5053957;28;20703;-42
2021/09/13 10:45:27;;;;;;;3.85;0.98;;;24.70;75.20;;;;;;5044074;28;20778;-45
2021/09/13 10:47:57;;;;;;;3.35;1.13;;;24.70;82.10;;;;;;5039495;28;20080;-44
2021/09/13 10:50:34;;;;;;;7.87;1.63;;;24.80;90.00;;;;;;5043857;28;20061;-46
2021/09/13 10:53:04;;;;;;;8.25;2.70;;;25.00;79.00;;;;;;5049774;28;20819;-46
2021/09/13 10:55:30;;;;;;;6.72;2.08;;;25.20;84.60;;;;;;5042683;28;20057;-43
2021/09/13 10:58:23;;;;;;;5.95;1.83;;;25.30;83.10;;;;;;5043145;28;20548;-44
2021/09/13 11:00:55;;;;;;;10.65;8.20;;;25.00;77.50;;;;;;4927609;29;20055;-43
2021/09/13 11:03:28;;;;;;;5.15;2.22;;;24.80;71.50;;;;;;4945146;29;20066;-44
2021/09/13 11:06:06;;;;;;;3.78;1.90;;;25.00;70.00;;;;;;4936823;28;20078;-42
2021/09/13 11:08:59;;;;;;;4.68;1.40;;;24.80;64.90;;;;;;4938173;28;20060;-46
2021/09/13 11:11:44;;;;;;;6.15;2.65;;;24.30;62.10;;;;;;4926296;29;20120;-45
2021/09/13 11:14:20;;;;;;;7.80;2.00;;;24.70;71.60;;;;;;4936432;29;20063;-42
2021/09/13 11:16:55;;;;;;;12.57;9.18;;;24.50;69.50;;;;;;4952794;28;20051;-45
2021/09/13 11:19:23;;;;;;;6.28;2.78;;;25.10;68.70;;;;;;4941797;29;20059;-45
2021/09/13 11:21:55;;;;;;;12.23;9.00;;;25.50;68.20;;;;;;4956537;28;20054;-47
2021/09/13 11:24:26;;;;;;;4.60;1.13;;;26.10;64.80;;;;;;4983667;28;20085;-44
2021/09/13 11:26:56;;;;;;;6.80;3.78;;;25.90;66.50;;;;;;4982751;28;20145;-49
2021/09/13 11:29:31;;;;;;;6.63;3.67;;;26.90;65.90;;;;;;4984147;28;20602;-44
2021/09/13 11:32:04;;;;;;;5.93;2.08;;;27.50;61.50;;;;;;4983791;28;20533;-45
2021/09/13 11:34:40;;;;;;;5.10;1.70;;;28.00;60.90;;;;;;4970932;28;20062;-45
2021/09/13 11:37:18;;;;;;;7.68;5.30;;;27.90;55.90;;;;;;4999811;28;20059;-44
2021/09/13 11:39:50;;;;;;;4.07;1.00;;;27.30;55.90;;;;;;5064421;28;20135;-44
2021/09/13 11:42:25;;;;;;;6.70;1.33;;;26.60;61.10;;;;;;5065004;28;20102;-45
2021/09/13 11:45:10;;;;;;;5.20;1.00;;;25.80;61.90;;;;;;5065467;28;20505;-45
2021/09/13 11:47:37;;;;;;;6.10;1.63;;;25.00;63.40;;;;;;5064777;28;20063;-44
2021/09/13 11:50:07;;;;;;;5.95;2.58;;;24.30;69.70;;;;;;5065424;28;20072;-45
2021/09/13 11:52:35;;;;;;;4.10;2.60;;;23.70;72.30;;;;;;5063919;28;20053;-45
2021/09/13 11:55:27;;;;;;;3.78;1.20;;;23.20;75.20;;;;;;5063465;28;20041;-44
2021/09/13 11:57:57;;;;;;;5.55;1.65;;;22.70;83.40;;;;;;5064041;28;20087;-44
2021/09/13 12:00:33;;;;;;;8.35;1.88;;;22.30;90.10;;;;;;5064308;28;20769;-45
2021/09/13 12:03:09;;;;;;;4.45;1.20;;;22.10;91.30;;;;;;5062447;28;20187;-45
2021/09/13 12:05:40;;;;;;;11.52;5.05;;;21.80;93.10;;;;;;5067298;28;20133;-44
2021/09/13 12:08:16;;;;;;;7.65;3.33;;;21.60;98.10;;;;;;5065735;28;20076;-47
2021/09/13 12:10:43;;;;;;;2.67;1.05;;;21.50;99.70;;;;;;5059572;28;20048;-46
2021/09/13 12:13:14;;;;;;;14.75;9.13;;;21.50;99.30;;;;;;5057549;28;20048;-45
2021/09/13 12:15:48;;;;;;;11.85;8.98;;;21.40;99.90;;;;;;5045677;28;20391;-46
2021/09/13 12:18:20;;;;;;;4.07;1.42;;;21.30;99.90;;;;;;5057583;28;20052;-46
2021/09/13 12:20:48;;;;;;;5.05;2.13;;;21.20;99.90;;;;;;5066867;28;20131;-46
2021/09/13 12:23:23;;;;;;;3.95;1.60;;;21.00;99.90;;;;;;5055704;28;20484;-48
2021/09/13 12:25:54;;;;;;;5.25;2.38;;;21.00;99.90;;;;;;5047732;28;20187;-44
2021/09/13 12:28:28;;;;;;;7.35;3.47;;;21.00;99.90;;;;;;5080185;28;20064;-47
2021/09/13 12:30:57;;;;;;;19.17;16.00;;;21.00;99.90;;;;;;5049489;28;20052;-43
2021/09/13 12:33:41;;;;;;;8.40;2.25;;;20.90;99.90;;;;;;5060089;28;20129;-43
2021/09/13 12:36:19;;;;;;;6.28;1.38;;;20.90;99.90;;;;;;5068519;28;20049;-44
2021/09/13 12:38:48;;;;;;;7.55;2.88;;;20.90;99.90;;;;;;5059749;28;20052;-48
2021/09/13 12:41:34;;;;;;;6.47;1.55;;;20.80;99.90;;;;;;5061778;28;20056;-45
2021/09/13 12:44:21;;;;;;;4.88;1.45;;;20.80;99.90;;;;;;5055655;28;20489;-43
2021/09/13 12:46:58;;;;;;;5.50;2.17;;;20.80;99.90;;;;;;5050718;28;20052;-48
2021/09/13 12:49:30;;;;;;;26.63;23.38;;;20.80;99.90;;;;;;5065160;28;20056;-47
2021/09/13 12:52:02;;;;;;;16.92;12.85;;;20.90;99.90;;;;;;5057595;28;20068;-45
2021/09/13 12:54:34;;;;;;;15.02;12.05;;;20.90;99.90;;;;;;5054114;28;20096;-47
2021/09/13 12:57:00;;;;;;;36.58;32.67;;;20.90;99.90;;;;;;5060755;28;20063;-45
2021/09/13 12:59:31;;;;;;;57.72;51.40;;;20.80;99.90;;;;;;5068016;28;20724;-44
2021/09/13 13:01:57;;;;;;;13.25;11.38;;;20.90;99.90;;;;;;5066709;28;20460;-44
2021/09/13 13:04:38;;;;;;;5.63;1.85;;;20.80;99.90;;;;;;5058525;28;20057;-48
2021/09/13 13:07:14;;;;;;;15.63;12.73;;;20.80;99.90;;;;;;5050329;28;20456;-48
2021/09/13 13:09:42;;;;;;;11.82;9.15;;;20.80;99.90;;;;;;5050156;28;20053;-47
2021/09/13 13:12:12;;;;;;;5.07;1.92;;;20.70;99.90;;;;;;5067764;28;20056;-46